Главная страница
METAR-TAF:

METAR-TAF

Аэропорты :

Линчёпинг, Швеция

широта: 58-24N, долгота: 015-41E, высота над уровнем моря: 52 м

Текущие метеонаблюдения

Эта сводка был подготовлена 27 минут назад, в 09:50 UTC
Ветер 19 Узел от западный
Температура 10°C
Влажность 62%
Давление 1015 hPa
Видимость 10 км и более

METAR: ESSL 230950Z AUTO 26019KT 9999 FEW031/// 10/03 Q1015

Время: 11:17 (10:17 UTC)

Прогноз

Эта сводка был подготовлена 5 часа и 47 минут назад, в 04:30 UTC
Прогноз действительный с 23-го 05 UTC до 23-го 07 UTC
Ветер 12 Узел от южный-юго-западный
Видимость 10 км и более
Сплошная облачность на высоте 2000 фута

TAF: ESSL 230430Z 2305/2307 21012KT 9999 OVC020

Метеонаблюдения и прогнозы для более 4000 аэропортов (сводки METAR и TAF).

Имеющиеся станции представлены на карте желтыми и красными точками.

Чтобы увидеть название станции, наведите на нее мышь.

Затем щелкните, чтобы увидеть метеонаблюдения и метеопрогнозы.

Управление картой: чтобы увеличить масштаб, щелкните зеленые кнопки с черным крестиком; чтобы уменьшить масштаб, щелкните зеленую кнопку с тире; для просмотра соседних карт щелкайте зеленые стрелки.


METAR-TAF: